Anderson, Texas
Current Conditions -  °F | °C
As of 10:53 AM on Saturday 25 Oct 2014 (Local Time) from KCLL Reporting Station
Clear Clear  
Wind Chill: 75°   Ceiling: Unl
Heat Index: 75°   Visibility: 10mi
Dew Point: 60°   Wind: 7mph
Humidity: 60%   Direction: 270°W
Pressure: 30.19"   Gusts: NA
Location:  30.49°N, 95.99°W
Report Text: KCLL 251553Z 27006KT 10SM CLR 24/16 A3019 RMK AO2 SLP220 T02390156
Loading
Personal Weather Stations






























Interactive Weather Map New forecast layout! Learn more

10-Day Weather Forecast

Advertisements
Track Severe Weather on mobile